Time,TemperatureF,DewpointF,PressureIn,WindDirection,WindDirectionDegrees,WindSpeedMPH,WindSpeedGustMPH,Humidity,HourlyPrecipIn,Conditions,Clouds,dailyrainin,SoftwareType,DateUTC
2013-04-14 00:01:00,49.5,38.6,29.49,NNW,333,4.0,5.0,66,0.00,,,0.00,Wunderground v.1.15,2013-04-14 06:01:00,
2013-04-14 00:02:00,49.5,38.6,29.49,NW,311,4.0,5.0,66,0.00,,,0.00,Wunderground v.1.15,2013-04-14 06:02:00,
2013-04-14 00:04:00,49.4,38.5,29.49,NW,323,3.0,5.0,66,0.00,,,0.00,Wunderground v.1.15,2013-04-14 06:04:00,
2013-04-14 00:06:00,49.4,38.5,29.49,NNW,333,3.0,5.0,66,0.00,,,0.00,Wunderground v.1.15,2013-04-14 06:06:00,
2013-04-14 00:10:00,49.4,38.1,29.49,NW,306,2.0,3.0,65,0.00,,,0.00,Wunderground v.1.15,2013-04-14 06:10:00,
2013-04-14 00:14:00,49.6,36.7,29.49,WSW,256,2.0,6.0,61,0.00,,,0.00,Wunderground v.1.15,2013-04-14 06:14:00,
2013-04-14 00:16:00,50.1,35.9,29.49,NW,315,3.0,6.0,58,0.00,,,0.00,Wunderground v.1.15,2013-04-14 06:16:00,
2013-04-14 00:18:00,50.7,36.0,29.49,NW,316,4.0,10.0,57,0.00,,,0.00,Wunderground v.1.15,2013-04-14 06:18:00,
2013-04-14 00:20:00,51.1,36.4,29.49,WNW,290,5.0,10.0,57,0.00,,,0.00,Wunderground v.1.15,2013-04-14 06:20:00,
2013-04-14 00:28:00,52.0,35.4,29.49,NW,319,8.0,16.0,53,0.00,,,0.00,Wunderground v.1.15,2013-04-14 06:28:00,
2013-04-14 00:30:00,51.6,38.6,29.49,NNW,334,8.0,12.0,61,0.00,,,0.00,Wunderground v.1.15,2013-04-14 06:30:00,
2013-04-14 00:34:00,49.6,40.2,29.49,NW,326,7.0,12.0,70,0.00,,,0.00,Wunderground v.1.15,2013-04-14 06:34:00,
2013-04-14 00:36:00,48.9,40.3,29.49,NNW,338,6.0,12.0,72,0.00,,,0.00,Wunderground v.1.15,2013-04-14 06:36:00,
2013-04-14 00:40:00,47.6,40.4,29.49,NNW,333,6.0,6.0,76,0.00,,,0.00,Wunderground v.1.15,2013-04-14 06:40:00,
2013-04-14 00:42:00,47.0,40.2,29.49,NW,323,7.0,9.0,77,0.00,,,0.01,Wunderground v.1.15,2013-04-14 06:42:00,
2013-04-14 00:44:00,46.5,40.7,29.49,NNW,336,7.0,9.0,80,0.00,,,0.01,Wunderground v.1.15,2013-04-14 06:44:00,
2013-04-14 00:46:00,46.2,40.7,29.52,WNW,299,7.0,9.0,81,0.00,,,0.01,Wunderground v.1.15,2013-04-14 06:46:00,
2013-04-14 00:50:00,45.7,40.5,29.52,NW,319,6.0,7.0,82,0.00,,,0.01,Wunderground v.1.15,2013-04-14 06:50:00,
2013-04-14 00:52:00,45.4,40.2,29.52,NW,313,6.0,7.0,82,0.00,,,0.01,Wunderground v.1.15,2013-04-14 06:52:00,
2013-04-14 00:54:00,45.1,40.2,29.52,NNW,340,6.0,7.0,83,0.00,,,0.01,Wunderground v.1.15,2013-04-14 06:54:00,
2013-04-14 00:58:00,44.6,40.1,29.52,NNW,341,7.0,7.0,84,0.05,,,0.02,Wunderground v.1.15,2013-04-14 06:58:00,
2013-04-14 01:00:00,44.6,40.1,29.52,NNW,333,7.0,7.0,84,0.05,,,0.02,Wunderground v.1.15,2013-04-14 07:00:00,
2013-04-14 01:02:00,44.3,39.8,29.55,NW,311,7.0,7.0,84,0.05,,,0.02,Wunderground v.1.15,2013-04-14 07:02:00,
2013-04-14 01:04:00,44.3,39.8,29.55,NW,314,6.0,7.0,84,0.05,,,0.02,Wunderground v.1.15,2013-04-14 07:04:00,
2013-04-14 01:06:00,44.2,39.7,29.55,North,5,5.0,7.0,84,0.06,,,0.03,Wunderground v.1.15,2013-04-14 07:06:00,
2013-04-14 01:12:00,43.9,39.7,29.55,NNW,344,6.0,11.0,85,0.06,,,0.03,Wunderground v.1.15,2013-04-14 07:12:00,
2013-04-14 01:14:00,43.9,39.7,29.55,NNW,333,6.0,11.0,85,0.06,,,0.03,Wunderground v.1.15,2013-04-14 07:14:00,
2013-04-14 01:16:00,43.8,39.6,29.57,NNW,338,6.0,11.0,85,0.06,,,0.03,Wunderground v.1.15,2013-04-14 07:16:00,
2013-04-14 01:20:00,43.6,39.7,29.57,NNW,342,6.0,6.0,86,0.04,,,0.03,Wunderground v.1.15,2013-04-14 07:20:00,
2013-04-14 01:22:00,43.6,39.7,29.57,NW,321,5.0,6.0,86,0.00,,,0.03,Wunderground v.1.15,2013-04-14 07:22:00,
2013-04-14 01:26:00,43.3,39.4,29.57,NW,323,5.0,7.0,86,0.00,,,0.03,Wunderground v.1.15,2013-04-14 07:26:00,
2013-04-14 01:30:00,43.3,39.4,29.58,NNW,337,5.0,5.0,86,0.00,,,0.03,Wunderground v.1.15,2013-04-14 07:30:00,
2013-04-14 01:32:00,43.2,39.3,29.58,NW,326,5.0,5.0,86,0.00,,,0.03,Wunderground v.1.15,2013-04-14 07:32:00,
2013-04-14 01:34:00,43.2,39.3,29.58,NW,309,5.0,5.0,86,0.00,,,0.03,Wunderground v.1.15,2013-04-14 07:34:00,
2013-04-14 01:36:00,43.2,39.3,29.58,NNW,334,4.0,5.0,86,0.00,,,0.03,Wunderground v.1.15,2013-04-14 07:36:00,
2013-04-14 01:40:00,43.1,39.2,29.58,NW,325,4.0,4.0,86,0.00,,,0.04,Wunderground v.1.15,2013-04-14 07:40:00,
2013-04-14 01:44:00,42.9,39.0,29.58,NW,323,4.0,4.0,86,0.00,,,0.04,Wunderground v.1.15,2013-04-14 07:44:00,
2013-04-14 01:46:00,42.9,39.0,29.58,North,32767,4.0,4.0,86,0.00,,,0.04,Wunderground v.1.15,2013-04-14 07:46:00,
2013-04-14 01:48:00,42.8,38.9,29.58,NW,317,4.0,6.0,86,0.07,,,0.05,Wunderground v.1.15,2013-04-14 07:48:00,
2013-04-14 01:50:00,42.8,38.9,29.58,NW,308,4.0,4.0,86,0.07,,,0.05,Wunderground v.1.15,2013-04-14 07:50:00,
2013-04-14 01:52:00,42.6,38.7,29.58,NW,325,4.0,4.0,86,0.07,,,0.05,Wunderground v.1.15,2013-04-14 07:52:00,
2013-04-14 01:56:00,42.6,38.7,29.58,NW,306,4.0,5.0,86,0.06,,,0.05,Wunderground v.1.15,2013-04-14 07:56:00,
2013-04-14 01:58:00,42.6,38.7,29.58,NW,325,4.0,5.0,86,0.05,,,0.05,Wunderground v.1.15,2013-04-14 07:58:00,
2013-04-14 02:00:00,42.5,38.6,29.58,WNW,298,4.0,4.0,86,0.04,,,0.05,Wunderground v.1.15,2013-04-14 08:00:00,
2013-04-14 02:04:00,42.3,38.4,29.58,NW,304,3.0,5.0,86,0.04,,,0.06,Wunderground v.1.15,2013-04-14 08:04:00,
2013-04-14 02:06:00,42.3,38.4,29.58,NW,325,4.0,5.0,86,0.04,,,0.06,Wunderground v.1.15,2013-04-14 08:06:00,
2013-04-14 02:10:00,42.2,38.3,29.58,NNW,344,3.0,3.0,86,0.10,,,0.07,Wunderground v.1.15,2013-04-14 08:10:00,
2013-04-14 02:14:00,42.2,38.3,29.58,NNW,333,3.0,4.0,86,0.10,,,0.07,Wunderground v.1.15,2013-04-14 08:14:00,
2013-04-14 02:16:00,42.2,38.3,29.59,NNW,340,3.0,5.0,86,0.10,,,0.07,Wunderground v.1.15,2013-04-14 08:16:00,
2013-04-14 02:22:00,41.9,38.0,29.59,WNW,299,3.0,5.0,86,0.05,,,0.07,Wunderground v.1.15,2013-04-14 08:22:00,
2013-04-14 02:28:00,41.6,37.7,29.59,NW,315,4.0,9.0,86,0.04,,,0.08,Wunderground v.1.15,2013-04-14 08:28:00,
2013-04-14 02:30:00,41.6,37.7,29.59,NW,322,4.0,4.0,86,0.04,,,0.08,Wunderground v.1.15,2013-04-14 08:30:00,
2013-04-14 02:32:00,41.5,37.3,29.59,WNW,297,4.0,5.0,85,0.04,,,0.08,Wunderground v.1.15,2013-04-14 08:32:00,
2013-04-14 02:38:00,41.5,37.6,29.59,NW,315,3.0,5.0,86,0.06,,,0.09,Wunderground v.1.15,2013-04-14 08:38:00,
2013-04-14 02:40:00,41.3,37.4,29.59,NW,317,4.0,4.0,86,0.10,,,0.10,Wunderground v.1.15,2013-04-14 08:40:00,
2013-04-14 02:42:00,41.3,37.4,29.59,NNW,331,4.0,5.0,86,0.10,,,0.10,Wunderground v.1.15,2013-04-14 08:42:00,
2013-04-14 02:44:00,41.2,37.3,29.59,NNW,339,4.0,5.0,86,0.21,,,0.11,Wunderground v.1.15,2013-04-14 08:44:00,
2013-04-14 02:48:00,41.2,37.3,29.59,WNW,298,4.0,5.0,86,0.11,,,0.11,Wunderground v.1.15,2013-04-14 08:48:00,
2013-04-14 02:50:00,41.2,37.6,29.59,NW,323,4.0,4.0,87,0.10,,,0.12,Wunderground v.1.15,2013-04-14 08:50:00,
2013-04-14 02:52:00,41.1,37.5,29.59,North,11,5.0,5.0,87,0.10,,,0.12,Wunderground v.1.15,2013-04-14 08:52:00,
2013-04-14 02:56:00,40.9,37.3,29.59,NNW,327,5.0,5.0,87,0.11,,,0.13,Wunderground v.1.15,2013-04-14 08:56:00,
2013-04-14 03:02:00,40.8,37.2,29.59,NNW,343,4.0,6.0,87,0.23,,,0.15,Wunderground v.1.15,2013-04-14 09:02:00,
2013-04-14 03:04:00,40.6,37.0,29.59,WNW,302,4.0,6.0,87,0.23,,,0.16,Wunderground v.1.15,2013-04-14 09:04:00,
2013-04-14 03:06:00,40.6,37.0,29.59,WNW,294,4.0,6.0,87,0.25,,,0.17,Wunderground v.1.15,2013-04-14 09:06:00,
2013-04-14 03:10:00,40.5,36.9,29.59,NNW,327,4.0,4.0,87,0.13,,,0.17,Wunderground v.1.15,2013-04-14 09:10:00,
2013-04-14 03:16:00,40.3,36.7,29.61,WNW,297,4.0,6.0,87,0.10,,,0.18,Wunderground v.1.15,2013-04-14 09:16:00,
2013-04-14 03:18:00,40.2,36.6,29.61,NW,321,4.0,6.0,87,0.08,,,0.18,Wunderground v.1.15,2013-04-14 09:18:00,
2013-04-14 03:20:00,40.2,36.6,29.61,NW,307,3.0,3.0,87,0.06,,,0.18,Wunderground v.1.15,2013-04-14 09:20:00,
2013-04-14 03:22:00,40.2,36.6,29.61,NW,304,4.0,4.0,87,0.06,,,0.19,Wunderground v.1.15,2013-04-14 09:22:00,
2013-04-14 03:26:00,40.2,36.6,29.61,NW,306,3.0,4.0,87,0.13,,,0.20,Wunderground v.1.15,2013-04-14 09:26:00,
2013-04-14 03:28:00,40.1,36.5,29.61,North,32767,3.0,4.0,87,0.13,,,0.20,Wunderground v.1.15,2013-04-14 09:28:00,
2013-04-14 03:31:00,40.1,36.5,29.61,WNW,298,3.0,3.0,87,0.12,,,0.21,Wunderground v.1.15,2013-04-14 09:31:00,
2013-04-14 03:32:00,40.1,36.5,29.61,WNW,295,3.0,3.0,87,0.12,,,0.21,Wunderground v.1.15,2013-04-14 09:32:00,
2013-04-14 03:38:00,40.1,36.5,29.61,WNW,296,2.0,3.0,87,0.08,,,0.21,Wunderground v.1.15,2013-04-14 09:38:00,
2013-04-14 03:40:00,40.1,36.5,29.61,WNW,296,2.0,2.0,87,0.07,,,0.22,Wunderground v.1.15,2013-04-14 09:40:00,
2013-04-14 03:42:00,40.1,36.5,29.61,WNW,300,2.0,2.0,87,0.07,,,0.22,Wunderground v.1.15,2013-04-14 09:42:00,
2013-04-14 03:44:00,40.1,36.5,29.61,WNW,300,1.0,2.0,87,0.07,,,0.22,Wunderground v.1.15,2013-04-14 09:44:00,
2013-04-14 03:50:00,40.1,36.5,29.62,NW,317,1.0,1.0,87,0.10,,,0.23,Wunderground v.1.15,2013-04-14 09:50:00,
2013-04-14 03:52:00,40.2,36.6,29.62,NW,317,1.0,2.0,87,0.08,,,0.23,Wunderground v.1.15,2013-04-14 09:52:00,
2013-04-14 03:56:00,40.2,36.6,29.62,NW,317,1.0,2.0,87,0.05,,,0.23,Wunderground v.1.15,2013-04-14 09:56:00,
2013-04-14 03:58:00,40.2,36.6,29.62,NW,317,0.0,2.0,87,0.04,,,0.24,Wunderground v.1.15,2013-04-14 09:58:00,
2013-04-14 04:02:00,40.2,36.6,29.62,NW,314,1.0,3.0,87,0.04,,,0.24,Wunderground v.1.15,2013-04-14 10:02:00,
2013-04-14 04:06:00,40.2,36.9,29.62,NW,314,1.0,3.0,88,0.04,,,0.24,Wunderground v.1.15,2013-04-14 10:06:00,
2013-04-14 04:08:00,40.2,36.9,29.62,NW,314,1.0,3.0,88,0.04,,,0.24,Wunderground v.1.15,2013-04-14 10:08:00,
2013-04-14 04:12:00,40.3,37.0,29.62,NW,313,1.0,1.0,88,0.04,,,0.24,Wunderground v.1.15,2013-04-14 10:12:00,
2013-04-14 04:14:00,40.3,37.0,29.62,NW,314,1.0,1.0,88,0.04,,,0.25,Wunderground v.1.15,2013-04-14 10:14:00,
2013-04-14 04:18:00,40.2,36.9,29.61,NW,314,1.0,2.0,88,0.11,,,0.26,Wunderground v.1.15,2013-04-14 10:18:00,
2013-04-14 04:20:00,40.2,36.9,29.61,NW,313,0.0,2.0,88,0.11,,,0.26,Wunderground v.1.15,2013-04-14 10:20:00,
2013-04-14 04:22:00,40.2,36.9,29.61,NW,313,0.0,2.0,88,0.11,,,0.26,Wunderground v.1.15,2013-04-14 10:22:00,
2013-04-14 04:28:00,40.2,36.9,29.61,NW,305,1.0,2.0,88,0.08,,,0.27,Wunderground v.1.15,2013-04-14 10:28:00,
2013-04-14 04:30:00,40.2,36.9,29.61,NW,306,1.0,2.0,88,0.08,,,0.27,Wunderground v.1.15,2013-04-14 10:30:00,
2013-04-14 04:34:00,40.1,36.8,29.61,NW,317,1.0,1.0,88,0.06,,,0.27,Wunderground v.1.15,2013-04-14 10:34:00,
2013-04-14 04:36:00,40.1,36.8,29.61,NW,317,1.0,1.0,88,0.05,,,0.27,Wunderground v.1.15,2013-04-14 10:36:00,
2013-04-14 04:38:00,40.1,36.8,29.61,NW,308,1.0,1.0,88,0.05,,,0.27,Wunderground v.1.15,2013-04-14 10:38:00,
2013-04-14 04:42:00,39.8,36.5,29.61,NW,309,1.0,1.0,88,0.00,,,0.27,Wunderground v.1.15,2013-04-14 10:42:00,
2013-04-14 04:48:00,39.3,35.8,29.63,NW,311,1.0,5.0,87,0.00,,,0.27,Wunderground v.1.15,2013-04-14 10:48:00,
2013-04-14 04:50:00,39.3,35.8,29.63,NW,311,1.0,5.0,87,0.00,,,0.27,Wunderground v.1.15,2013-04-14 10:50:00,
2013-04-14 04:52:00,39.3,35.8,29.63,NW,309,1.0,1.0,87,0.00,,,0.27,Wunderground v.1.15,2013-04-14 10:52:00,
2013-04-14 04:56:00,39.2,35.4,29.63,NW,307,1.0,1.0,86,0.00,,,0.28,Wunderground v.1.15,2013-04-14 10:56:00,
2013-04-14 04:58:00,39.2,35.4,29.63,NW,307,1.0,1.0,86,0.00,,,0.28,Wunderground v.1.15,2013-04-14 10:58:00,
2013-04-14 05:02:00,39.2,35.4,29.64,NW,308,1.0,1.0,86,0.00,,,0.28,Wunderground v.1.15,2013-04-14 11:02:00,
2013-04-14 05:04:00,39.1,35.3,29.64,NW,306,1.0,1.0,86,0.00,,,0.28,Wunderground v.1.15,2013-04-14 11:04:00,
2013-04-14 05:08:00,39.1,35.3,29.64,NW,307,1.0,3.0,86,0.00,,,0.28,Wunderground v.1.15,2013-04-14 11:08:00,
2013-04-14 05:12:00,39.1,35.3,29.64,NW,306,1.0,1.0,86,0.00,,,0.28,Wunderground v.1.15,2013-04-14 11:12:00,
2013-04-14 05:18:00,38.9,34.8,29.64,NW,306,1.0,2.0,85,0.00,,,0.28,Wunderground v.1.15,2013-04-14 11:18:00,
2013-04-14 05:20:00,38.9,34.8,29.64,NW,306,1.0,2.0,85,0.00,,,0.28,Wunderground v.1.15,2013-04-14 11:20:00,
2013-04-14 05:24:00,38.9,34.5,29.64,NW,306,1.0,2.0,84,0.00,,,0.28,Wunderground v.1.15,2013-04-14 11:24:00,
2013-04-14 05:26:00,38.9,34.5,29.64,NW,306,1.0,2.0,84,0.00,,,0.28,Wunderground v.1.15,2013-04-14 11:26:00,
2013-04-14 05:32:00,38.9,34.5,29.65,NW,306,0.0,1.0,84,0.00,,,0.28,Wunderground v.1.15,2013-04-14 11:32:00,
2013-04-14 05:34:00,38.9,34.5,29.65,NW,306,0.0,1.0,84,0.00,,,0.28,Wunderground v.1.15,2013-04-14 11:34:00,
2013-04-14 05:36:00,38.8,34.4,29.65,NW,306,0.0,1.0,84,0.00,,,0.28,Wunderground v.1.15,2013-04-14 11:36:00,
2013-04-14 05:38:00,38.8,34.4,29.65,NW,306,0.0,1.0,84,0.00,,,0.28,Wunderground v.1.15,2013-04-14 11:38:00,
2013-04-14 05:40:00,38.8,34.1,29.65,NW,306,0.0,0.0,83,0.00,,,0.28,Wunderground v.1.15,2013-04-14 11:40:00,
2013-04-14 05:42:00,38.8,34.4,29.65,NW,306,0.0,0.0,84,0.00,,,0.28,Wunderground v.1.15,2013-04-14 11:42:00,
2013-04-14 05:44:00,38.8,34.4,29.65,NW,306,0.0,0.0,84,0.00,,,0.28,Wunderground v.1.15,2013-04-14 11:44:00,
2013-04-14 05:50:00,38.5,33.5,29.65,NW,306,1.0,1.0,82,0.00,,,0.28,Wunderground v.1.15,2013-04-14 11:50:00,
2013-04-14 05:52:00,38.5,33.5,29.65,NW,306,1.0,1.0,82,0.00,,,0.28,Wunderground v.1.15,2013-04-14 11:52:00,
2013-04-14 05:54:00,38.5,33.5,29.65,NW,306,1.0,2.0,82,0.00,,,0.28,Wunderground v.1.15,2013-04-14 11:54:00,
2013-04-14 05:56:00,38.5,33.2,29.65,NW,306,1.0,2.0,81,0.00,,,0.28,Wunderground v.1.15,2013-04-14 11:56:00,
2013-04-14 06:00:00,38.6,33.6,29.65,NW,306,1.0,3.0,82,0.00,,,0.28,Wunderground v.1.15,2013-04-14 12:00:00,
2013-04-14 06:06:00,38.6,33.3,29.65,NW,306,1.0,3.0,81,0.00,,,0.28,Wunderground v.1.15,2013-04-14 12:06:00,
2013-04-14 06:08:00,38.6,33.3,29.65,NW,306,1.0,3.0,81,0.00,,,0.28,Wunderground v.1.15,2013-04-14 12:08:00,
2013-04-14 06:12:00,38.5,33.2,29.65,NW,306,0.0,2.0,81,0.00,,,0.28,Wunderground v.1.15,2013-04-14 12:12:00,
2013-04-14 06:16:00,38.5,33.2,29.67,NW,306,0.0,2.0,81,0.00,,,0.28,Wunderground v.1.15,2013-04-14 12:16:00,
2013-04-14 06:18:00,38.5,33.2,29.67,NW,306,0.0,2.0,81,0.00,,,0.28,Wunderground v.1.15,2013-04-14 12:18:00,
2013-04-14 06:20:00,38.5,33.2,29.67,NW,306,1.0,2.0,81,0.00,,,0.28,Wunderground v.1.15,2013-04-14 12:20:00,
2013-04-14 06:24:00,38.3,32.7,29.67,NW,311,1.0,2.0,80,0.00,,,0.28,Wunderground v.1.15,2013-04-14 12:24:00,
2013-04-14 06:26:00,38.3,32.4,29.67,NW,310,1.0,2.0,79,0.00,,,0.28,Wunderground v.1.15,2013-04-14 12:26:00,
2013-04-14 06:30:00,38.2,32.3,29.67,NW,305,1.0,2.0,79,0.00,,,0.28,Wunderground v.1.15,2013-04-14 12:30:00,
2013-04-14 06:34:00,38.3,32.4,29.69,NW,309,1.0,2.0,79,0.00,,,0.28,Wunderground v.1.15,2013-04-14 12:34:00,
2013-04-14 06:36:00,38.3,32.4,29.69,NW,309,1.0,2.0,79,0.00,,,0.28,Wunderground v.1.15,2013-04-14 12:36:00,
2013-04-14 06:40:00,38.2,31.9,29.69,WNW,298,1.0,6.0,78,0.00,,,0.28,Wunderground v.1.15,2013-04-14 12:40:00,
2013-04-14 06:42:00,38.0,31.7,29.69,WNW,298,1.0,6.0,78,0.00,,,0.28,Wunderground v.1.15,2013-04-14 12:42:00,
2013-04-14 06:48:00,38.0,31.4,29.70,WNW,299,1.0,6.0,77,0.00,,,0.28,Wunderground v.1.15,2013-04-14 12:48:00,
2013-04-14 06:50:00,38.0,31.4,29.70,WNW,294,1.0,1.0,77,0.00,,,0.28,Wunderground v.1.15,2013-04-14 12:50:00,
2013-04-14 06:52:00,37.9,31.0,29.70,WNW,288,1.0,1.0,76,0.00,,,0.28,Wunderground v.1.15,2013-04-14 12:52:00,
2013-04-14 06:54:00,37.8,29.9,29.70,WNW,298,1.0,1.0,73,0.00,,,0.28,Wunderground v.1.15,2013-04-14 12:54:00,
2013-04-14 06:58:00,37.6,29.7,29.70,WNW,297,2.0,2.0,73,0.00,,,0.28,Wunderground v.1.15,2013-04-14 12:58:00,
2013-04-14 07:00:00,37.6,30.1,29.70,WNW,298,2.0,2.0,74,0.00,,,0.28,Wunderground v.1.15,2013-04-14 13:00:00,
2013-04-14 07:06:00,37.5,28.2,29.71,WNW,302,2.0,6.0,69,0.00,,,0.28,Wunderground v.1.15,2013-04-14 13:06:00,
2013-04-14 07:08:00,37.5,27.9,29.71,NW,323,2.0,6.0,68,0.00,,,0.28,Wunderground v.1.15,2013-04-14 13:08:00,
2013-04-14 07:10:00,37.5,27.5,29.71,WNW,288,2.0,4.0,67,0.00,,,0.28,Wunderground v.1.15,2013-04-14 13:10:00,
2013-04-14 07:14:00,37.5,27.5,29.71,NW,306,2.0,4.0,67,0.00,,,0.28,Wunderground v.1.15,2013-04-14 13:14:00,
2013-04-14 07:20:00,37.3,25.8,29.73,NW,323,2.0,2.0,63,0.00,,,0.28,Wunderground v.1.15,2013-04-14 13:20:00,
2013-04-14 07:22:00,37.3,26.6,29.73,NW,323,1.0,2.0,65,0.00,,,0.28,Wunderground v.1.15,2013-04-14 13:22:00,
2013-04-14 07:24:00,37.3,25.8,29.73,NW,309,1.0,4.0,63,0.00,,,0.28,Wunderground v.1.15,2013-04-14 13:24:00,
2013-04-14 07:28:00,37.2,25.0,29.73,West,259,2.0,4.0,61,0.00,,,0.28,Wunderground v.1.15,2013-04-14 13:28:00,
2013-04-14 07:34:00,37.3,25.5,29.75,WNW,290,2.0,2.0,62,0.00,,,0.28,Wunderground v.1.15,2013-04-14 13:34:00,
2013-04-14 07:36:00,37.3,25.8,29.75,WNW,290,1.0,3.0,63,0.00,,,0.28,Wunderground v.1.15,2013-04-14 13:36:00,
2013-04-14 07:38:00,37.3,25.5,29.75,WNW,294,1.0,3.0,62,0.00,,,0.28,Wunderground v.1.15,2013-04-14 13:38:00,
2013-04-14 07:40:00,37.5,24.9,29.75,WNW,298,2.0,2.0,60,0.00,,,0.28,Wunderground v.1.15,2013-04-14 13:40:00,
2013-04-14 07:44:00,37.5,25.7,29.75,WNW,298,2.0,2.0,62,0.00,,,0.28,Wunderground v.1.15,2013-04-14 13:44:00,
2013-04-14 07:48:00,37.5,24.5,29.75,NW,304,1.0,2.0,59,0.00,,,0.28,Wunderground v.1.15,2013-04-14 13:48:00,
2013-04-14 07:50:00,37.5,24.9,29.75,NW,304,1.0,1.0,60,0.00,,,0.28,Wunderground v.1.15,2013-04-14 13:50:00,
2013-04-14 07:52:00,37.5,24.1,29.75,NW,304,0.0,1.0,58,0.00,,,0.28,Wunderground v.1.15,2013-04-14 13:52:00,
2013-04-14 07:54:00,37.5,24.5,29.75,NW,304,1.0,1.0,59,0.00,,,0.28,Wunderground v.1.15,2013-04-14 13:54:00,
2013-04-14 07:58:00,37.5,22.8,29.75,NW,309,1.0,3.0,55,0.00,,,0.28,Wunderground v.1.15,2013-04-14 13:58:00,
2013-04-14 08:00:00,37.5,21.9,29.75,NW,316,2.0,2.0,53,0.00,,,0.28,Wunderground v.1.15,2013-04-14 14:00:00,
2013-04-14 08:04:00,37.6,22.0,29.77,NW,316,2.0,2.0,53,0.00,,,0.28,Wunderground v.1.15,2013-04-14 14:04:00,
2013-04-14 08:06:00,37.6,22.9,29.77,NW,317,2.0,2.0,55,0.00,,,0.28,Wunderground v.1.15,2013-04-14 14:06:00,
2013-04-14 08:08:00,37.6,23.3,29.77,NW,316,1.0,2.0,56,0.00,,,0.28,Wunderground v.1.15,2013-04-14 14:08:00,
2013-04-14 08:12:00,37.6,20.6,29.77,WNW,296,1.0,1.0,50,0.00,,,0.28,Wunderground v.1.15,2013-04-14 14:12:00,
2013-04-14 08:18:00,37.6,22.4,29.78,WNW,297,1.0,1.0,54,0.00,,,0.28,Wunderground v.1.15,2013-04-14 14:18:00,
2013-04-14 08:20:00,37.8,23.5,29.78,WNW,297,0.0,1.0,56,0.00,,,0.28,Wunderground v.1.15,2013-04-14 14:20:00,
2013-04-14 08:24:00,37.6,21.1,29.78,WNW,297,0.0,3.0,51,0.00,,,0.28,Wunderground v.1.15,2013-04-14 14:24:00,
2013-04-14 08:26:00,37.6,22.4,29.78,WNW,297,0.0,3.0,54,0.00,,,0.28,Wunderground v.1.15,2013-04-14 14:26:00,
2013-04-14 08:28:00,37.8,22.6,29.78,WNW,297,0.0,3.0,54,0.00,,,0.28,Wunderground v.1.15,2013-04-14 14:28:00,
2013-04-14 08:32:00,37.8,23.1,29.79,WNW,297,0.0,0.0,55,0.00,,,0.28,Wunderground v.1.15,2013-04-14 14:32:00,
2013-04-14 08:34:00,37.8,22.2,29.79,WNW,297,0.0,0.0,53,0.00,,,0.28,Wunderground v.1.15,2013-04-14 14:34:00,
2013-04-14 08:40:00,37.8,23.1,29.79,WNW,297,0.0,1.0,55,0.00,,,0.28,Wunderground v.1.15,2013-04-14 14:40:00,
2013-04-14 08:44:00,37.9,21.8,29.79,WNW,298,1.0,4.0,52,0.00,,,0.28,Wunderground v.1.15,2013-04-14 14:44:00,
2013-04-14 08:50:00,38.0,21.9,29.80,NW,306,2.0,2.0,52,0.00,,,0.28,Wunderground v.1.15,2013-04-14 14:50:00,
2013-04-14 08:52:00,38.0,21.5,29.80,NW,306,1.0,2.0,51,0.00,,,0.28,Wunderground v.1.15,2013-04-14 14:52:00,
2013-04-14 08:56:00,38.2,21.2,29.80,NW,306,1.0,2.0,50,0.00,,,0.28,Wunderground v.1.15,2013-04-14 14:56:00,
2013-04-14 08:58:00,38.3,19.8,29.80,NW,309,1.0,2.0,47,0.00,,,0.28,Wunderground v.1.15,2013-04-14 14:58:00,
2013-04-14 09:04:00,38.3,19.3,29.80,NW,309,2.0,2.0,46,0.00,,,0.28,Wunderground v.1.15,2013-04-14 15:04:00,
2013-04-14 09:08:00,38.3,19.3,29.80,NW,309,1.0,2.0,46,0.00,,,0.28,Wunderground v.1.15,2013-04-14 15:08:00,
2013-04-14 09:10:00,38.5,19.5,29.80,NW,309,1.0,1.0,46,0.00,,,0.28,Wunderground v.1.15,2013-04-14 15:10:00,
2013-04-14 09:16:00,39.1,19.5,29.77,North,5,1.0,5.0,45,0.00,,,0.28,Wunderground v.1.15,2013-04-14 15:16:00,
2013-04-14 09:20:00,39.3,17.5,29.77,NW,309,1.0,1.0,41,0.00,,,0.28,Wunderground v.1.15,2013-04-14 15:20:00,
2013-04-14 09:22:00,39.5,18.3,29.77,WSW,252,2.0,2.0,42,0.00,,,0.28,Wunderground v.1.15,2013-04-14 15:22:00,
2013-04-14 09:24:00,39.8,20.7,29.77,WSW,252,1.0,2.0,46,0.00,,,0.28,Wunderground v.1.15,2013-04-14 15:24:00,
2013-04-14 09:26:00,39.8,19.1,29.77,WNW,287,1.0,2.0,43,0.00,,,0.28,Wunderground v.1.15,2013-04-14 15:26:00,
2013-04-14 09:28:00,39.9,18.6,29.77,NNW,335,1.0,2.0,42,0.00,,,0.28,Wunderground v.1.15,2013-04-14 15:28:00,
2013-04-14 09:32:00,40.2,16.0,29.78,NE,41,1.0,6.0,37,0.00,,,0.28,Wunderground v.1.15,2013-04-14 15:32:00,
2013-04-14 09:34:00,40.5,18.0,29.78,WNW,290,2.0,6.0,40,0.00,,,0.28,Wunderground v.1.15,2013-04-14 15:34:00,
2013-04-14 09:38:00,40.8,16.5,29.78,North,32767,2.0,6.0,37,0.00,,,0.28,Wunderground v.1.15,2013-04-14 15:38:00,
2013-04-14 09:40:00,40.8,17.1,29.78,NNE,17,2.0,4.0,38,0.00,,,0.28,Wunderground v.1.15,2013-04-14 15:40:00,
2013-04-14 09:42:00,40.8,17.1,29.78,NNE,14,3.0,4.0,38,0.00,,,0.28,Wunderground v.1.15,2013-04-14 15:42:00,
2013-04-14 09:44:00,40.9,17.8,29.78,NNE,22,3.0,5.0,39,0.00,,,0.28,Wunderground v.1.15,2013-04-14 15:44:00,
2013-04-14 09:48:00,40.9,14.6,29.77,NNW,335,3.0,5.0,34,0.00,,,0.28,Wunderground v.1.15,2013-04-14 15:48:00,
2013-04-14 09:50:00,40.8,15.2,29.77,NNW,327,3.0,4.0,35,0.00,,,0.28,Wunderground v.1.15,2013-04-14 15:50:00,
2013-04-14 09:56:00,41.1,18.0,29.77,North,10,3.0,4.0,39,0.00,,,0.28,Wunderground v.1.15,2013-04-14 15:56:00,
2013-04-14 09:58:00,41.1,18.0,29.77,North,355,3.0,5.0,39,0.00,,,0.28,Wunderground v.1.15,2013-04-14 15:58:00,
2013-04-14 10:04:00,41.1,18.0,29.76,NE,56,4.0,5.0,39,0.00,,,0.28,Wunderground v.1.15,2013-04-14 16:04:00,
2013-04-14 10:10:00,40.8,18.3,29.76,NNE,20,4.0,4.0,40,0.00,,,0.28,Wunderground v.1.15,2013-04-14 16:10:00,
2013-04-14 10:12:00,40.8,17.7,29.76,North,355,3.0,4.0,39,0.00,,,0.28,Wunderground v.1.15,2013-04-14 16:12:00,
2013-04-14 10:16:00,40.8,17.1,29.80,North,10,3.0,6.0,38,0.00,,,0.28,Wunderground v.1.15,2013-04-14 16:16:00,
2013-04-14 10:18:00,40.8,17.7,29.80,NNE,18,3.0,6.0,39,0.00,,,0.28,Wunderground v.1.15,2013-04-14 16:18:00,
2013-04-14 10:22:00,41.2,16.9,29.80,NNW,332,4.0,9.0,37,0.00,,,0.28,Wunderground v.1.15,2013-04-14 16:22:00,
2013-04-14 10:24:00,41.1,17.4,29.80,WNW,299,4.0,9.0,38,0.00,,,0.28,Wunderground v.1.15,2013-04-14 16:24:00,
2013-04-14 10:30:00,40.9,16.6,29.80,NNW,342,4.0,5.0,37,0.00,,,0.28,Wunderground v.1.15,2013-04-14 16:30:00,
2013-04-14 10:32:00,41.1,14.1,29.81,WNW,290,3.0,12.0,33,0.00,,,0.28,Wunderground v.1.15,2013-04-14 16:32:00,
2013-04-14 10:34:00,41.1,14.1,29.81,NNW,327,4.0,12.0,33,0.00,,,0.28,Wunderground v.1.15,2013-04-14 16:34:00,
2013-04-14 10:38:00,41.3,13.6,29.81,NNW,335,5.0,12.0,32,0.00,,,0.28,Wunderground v.1.15,2013-04-14 16:38:00,
2013-04-14 10:40:00,41.5,12.3,29.81,NNW,340,5.0,6.0,30,0.00,,,0.28,Wunderground v.1.15,2013-04-14 16:40:00,
2013-04-14 10:44:00,41.6,15.9,29.81,NW,310,4.0,6.0,35,0.00,,,0.28,Wunderground v.1.15,2013-04-14 16:44:00,
2013-04-14 10:48:00,42.1,14.3,29.80,NW,321,3.0,9.0,32,0.00,,,0.28,Wunderground v.1.15,2013-04-14 16:48:00,
2013-04-14 10:50:00,41.9,12.7,29.80,NNE,26,3.0,4.0,30,0.00,,,0.28,Wunderground v.1.15,2013-04-14 16:50:00,
2013-04-14 10:52:00,42.1,14.3,29.80,WNW,297,3.0,4.0,32,0.00,,,0.28,Wunderground v.1.15,2013-04-14 16:52:00,
2013-04-14 10:58:00,42.3,14.5,29.80,WNW,294,3.0,4.0,32,0.00,,,0.28,Wunderground v.1.15,2013-04-14 16:58:00,
2013-04-14 11:00:00,42.3,14.5,29.80,West,269,3.0,3.0,32,0.00,,,0.28,Wunderground v.1.15,2013-04-14 17:00:00,
2013-04-14 11:02:00,42.6,16.2,29.79,North,32767,3.0,3.0,34,0.00,,,0.28,Wunderground v.1.15,2013-04-14 17:02:00,
2013-04-14 11:06:00,42.9,13.5,29.79,NNE,26,3.0,4.0,30,0.00,,,0.28,Wunderground v.1.15,2013-04-14 17:06:00,
2013-04-14 11:08:00,42.8,15.6,29.79,NNE,17,3.0,10.0,33,0.00,,,0.28,Wunderground v.1.15,2013-04-14 17:08:00,
2013-04-14 11:14:00,42.2,13.7,29.79,NW,311,3.0,4.0,31,0.00,,,0.28,Wunderground v.1.15,2013-04-14 17:14:00,
2013-04-14 11:16:00,42.2,14.4,29.84,NNW,339,4.0,4.0,32,0.00,,,0.28,Wunderground v.1.15,2013-04-14 17:16:00,
2013-04-14 11:20:00,42.5,15.4,29.84,NNE,14,3.0,5.0,33,0.00,,,0.28,Wunderground v.1.15,2013-04-14 17:20:00,
2013-04-14 11:22:00,42.8,14.9,29.84,WNW,300,3.0,6.0,32,0.00,,,0.28,Wunderground v.1.15,2013-04-14 17:22:00,
2013-04-14 11:26:00,42.6,15.5,29.84,NNE,19,3.0,6.0,33,0.00,,,0.28,Wunderground v.1.15,2013-04-14 17:26:00,
2013-04-14 11:28:00,42.8,15.6,29.84,NNE,20,3.0,6.0,33,0.00,,,0.28,Wunderground v.1.15,2013-04-14 17:28:00,
2013-04-14 11:32:00,43.1,15.2,29.83,NNW,327,3.0,5.0,32,0.00,,,0.28,Wunderground v.1.15,2013-04-14 17:32:00,
2013-04-14 11:34:00,43.1,15.2,29.83,North,355,3.0,5.0,32,0.00,,,0.28,Wunderground v.1.15,2013-04-14 17:34:00,
2013-04-14 11:36:00,43.2,14.6,29.83,NNE,30,3.0,5.0,31,0.00,,,0.28,Wunderground v.1.15,2013-04-14 17:36:00,
2013-04-14 11:40:00,42.6,14.8,29.83,NNE,29,3.0,3.0,32,0.00,,,0.28,Wunderground v.1.15,2013-04-14 17:40:00,
2013-04-14 11:42:00,42.5,15.4,29.83,ESE,103,3.0,3.0,33,0.00,,,0.28,Wunderground v.1.15,2013-04-14 17:42:00,
2013-04-14 11:48:00,42.9,15.7,29.83,ENE,62,3.0,10.0,33,0.00,,,0.28,Wunderground v.1.15,2013-04-14 17:48:00,
2013-04-14 11:50:00,42.8,14.2,29.83,NE,52,4.0,7.0,31,0.00,,,0.28,Wunderground v.1.15,2013-04-14 17:50:00,
2013-04-14 11:54:00,42.2,15.8,29.83,North,11,4.0,9.0,34,0.00,,,0.28,Wunderground v.1.15,2013-04-14 17:54:00,
2013-04-14 11:56:00,42.2,15.8,29.83,NNE,30,4.0,9.0,34,0.00,,,0.28,Wunderground v.1.15,2013-04-14 17:56:00,
2013-04-14 12:00:00,42.5,18.0,29.83,North,5,4.0,6.0,37,0.00,,,0.28,Wunderground v.1.15,2013-04-14 18:00:00,
2013-04-14 12:08:00,42.5,16.7,29.83,ENE,61,4.0,6.0,35,0.00,,,0.28,Wunderground v.1.15,2013-04-14 18:08:00,
2013-04-14 12:10:00,42.6,16.2,29.83,North,355,4.0,5.0,34,0.00,,,0.28,Wunderground v.1.15,2013-04-14 18:10:00,
2013-04-14 12:12:00,42.8,16.3,29.83,NE,40,4.0,5.0,34,0.00,,,0.28,Wunderground v.1.15,2013-04-14 18:12:00,
2013-04-14 12:14:00,42.9,15.7,29.83,ENE,71,4.0,5.0,33,0.00,,,0.28,Wunderground v.1.15,2013-04-14 18:14:00,
2013-04-14 12:18:00,42.8,17.0,29.85,NNW,328,3.0,5.0,35,0.00,,,0.28,Wunderground v.1.15,2013-04-14 18:18:00,
2013-04-14 12:20:00,43.1,15.9,29.85,WNW,292,3.0,5.0,33,0.00,,,0.28,Wunderground v.1.15,2013-04-14 18:20:00,
2013-04-14 12:22:00,43.1,16.6,29.85,WNW,302,3.0,5.0,34,0.00,,,0.28,Wunderground v.1.15,2013-04-14 18:22:00,
2013-04-14 12:28:00,43.5,14.8,29.85,NE,40,3.0,5.0,31,0.00,,,0.28,Wunderground v.1.15,2013-04-14 18:28:00,
2013-04-14 12:30:00,43.6,16.3,29.85,NE,45,3.0,5.0,33,0.00,,,0.28,Wunderground v.1.15,2013-04-14 18:30:00,
2013-04-14 12:32:00,43.8,16.5,29.84,NE,53,3.0,5.0,33,0.00,,,0.28,Wunderground v.1.15,2013-04-14 18:32:00,
2013-04-14 12:38:00,44.1,16.8,29.84,NE,44,2.0,5.0,33,0.00,,,0.28,Wunderground v.1.15,2013-04-14 18:38:00,
2013-04-14 12:40:00,44.1,15.3,29.84,NE,56,2.0,2.0,31,0.00,,,0.28,Wunderground v.1.15,2013-04-14 18:40:00,
2013-04-14 12:42:00,44.2,15.4,29.84,ENE,57,2.0,2.0,31,0.00,,,0.28,Wunderground v.1.15,2013-04-14 18:42:00,
2013-04-14 12:46:00,44.6,16.5,29.82,North,32767,1.0,2.0,32,0.00,,,0.28,Wunderground v.1.15,2013-04-14 18:46:00,
2013-04-14 12:48:00,44.6,17.9,29.82,NE,34,2.0,3.0,34,0.00,,,0.28,Wunderground v.1.15,2013-04-14 18:48:00,
2013-04-14 12:50:00,44.8,18.1,29.82,NNE,25,3.0,9.0,34,0.00,,,0.28,Wunderground v.1.15,2013-04-14 18:50:00,
2013-04-14 12:54:00,44.6,16.5,29.82,NNW,327,4.0,9.0,32,0.00,,,0.28,Wunderground v.1.15,2013-04-14 18:54:00,
2013-04-14 13:00:00,44.9,18.2,29.81,North,355,4.0,4.0,34,0.00,,,0.28,Wunderground v.1.15,2013-04-14 19:00:00,
2013-04-14 13:02:00,45.1,17.7,29.81,NNW,333,3.0,4.0,33,0.00,,,0.28,Wunderground v.1.15,2013-04-14 19:02:00,
2013-04-14 13:08:00,44.9,17.5,29.81,NNE,19,4.0,7.0,33,0.00,,,0.28,Wunderground v.1.15,2013-04-14 19:08:00,
2013-04-14 13:10:00,44.8,18.8,29.81,NE,46,4.0,5.0,35,0.00,,,0.28,Wunderground v.1.15,2013-04-14 19:10:00,
2013-04-14 13:18:00,44.6,17.9,29.81,East,83,4.0,6.0,34,0.00,,,0.28,Wunderground v.1.15,2013-04-14 19:18:00,
2013-04-14 13:22:00,45.2,17.8,29.81,NNW,336,3.0,6.0,33,0.00,,,0.28,Wunderground v.1.15,2013-04-14 19:22:00,
2013-04-14 13:24:00,45.4,17.2,29.81,North,5,4.0,6.0,32,0.00,,,0.28,Wunderground v.1.15,2013-04-14 19:24:00,
2013-04-14 13:26:00,45.4,17.9,29.81,NNW,346,3.0,6.0,33,0.00,,,0.28,Wunderground v.1.15,2013-04-14 19:26:00,
2013-04-14 13:28:00,45.5,18.7,29.81,NNW,337,3.0,6.0,34,0.00,,,0.28,Wunderground v.1.15,2013-04-14 19:28:00,
2013-04-14 13:32:00,46.1,18.6,29.81,NE,42,3.0,3.0,33,0.00,,,0.28,Wunderground v.1.15,2013-04-14 19:32:00,
2013-04-14 13:34:00,46.1,18.6,29.81,North,9,2.0,3.0,33,0.00,,,0.28,Wunderground v.1.15,2013-04-14 19:34:00,
2013-04-14 13:36:00,46.1,17.8,29.81,North,355,2.0,5.0,32,0.00,,,0.28,Wunderground v.1.15,2013-04-14 19:36:00,
2013-04-14 13:38:00,46.2,18.6,29.81,NNW,329,3.0,5.0,33,0.00,,,0.28,Wunderground v.1.15,2013-04-14 19:38:00,
2013-04-14 13:40:00,46.4,18.1,29.81,North,5,3.0,3.0,32,0.00,,,0.28,Wunderground v.1.15,2013-04-14 19:40:00,
2013-04-14 13:42:00,46.7,17.6,29.81,WNW,301,3.0,4.0,31,0.00,,,0.28,Wunderground v.1.15,2013-04-14 19:42:00,
2013-04-14 13:44:00,46.7,17.6,29.81,NW,313,3.0,4.0,31,0.00,,,0.28,Wunderground v.1.15,2013-04-14 19:44:00,
2013-04-14 13:46:00,46.7,18.4,29.79,NW,313,3.0,4.0,32,0.00,,,0.28,Wunderground v.1.15,2013-04-14 19:46:00,
2013-04-14 13:48:00,47.0,17.9,29.79,West,263,2.0,4.0,31,0.00,,,0.28,Wunderground v.1.15,2013-04-14 19:48:00,
2013-04-14 13:52:00,47.7,20.0,29.79,SW,216,2.0,3.0,33,0.00,,,0.28,Wunderground v.1.15,2013-04-14 19:52:00,
2013-04-14 13:54:00,47.9,18.7,29.79,SW,216,1.0,3.0,31,0.00,,,0.28,Wunderground v.1.15,2013-04-14 19:54:00,
2013-04-14 13:58:00,48.3,19.0,29.79,NW,315,1.0,3.0,31,0.00,,,0.28,Wunderground v.1.15,2013-04-14 19:58:00,
2013-04-14 14:01:00,48.5,17.6,29.77,NNW,341,2.0,5.0,29,0.00,,,0.28,Wunderground v.1.15,2013-04-14 20:01:00,
2013-04-14 14:02:00,48.3,19.0,29.77,NNW,340,2.0,5.0,31,0.00,,,0.28,Wunderground v.1.15,2013-04-14 20:02:00,
2013-04-14 14:04:00,48.2,19.7,29.77,NW,325,3.0,5.0,32,0.00,,,0.28,Wunderground v.1.15,2013-04-14 20:04:00,
2013-04-14 14:10:00,48.2,18.9,29.77,NNE,23,2.0,2.0,31,0.00,,,0.28,Wunderground v.1.15,2013-04-14 20:10:00,
2013-04-14 14:14:00,48.5,19.9,29.77,NW,311,1.0,6.0,32,0.00,,,0.28,Wunderground v.1.15,2013-04-14 20:14:00,
2013-04-14 14:16:00,48.6,19.3,29.78,WNW,301,2.0,6.0,31,0.00,,,0.28,Wunderground v.1.15,2013-04-14 20:16:00,
2013-04-14 14:18:00,48.6,17.7,29.78,WNW,292,2.0,6.0,29,0.00,,,0.28,Wunderground v.1.15,2013-04-14 20:18:00,
2013-04-14 14:22:00,48.5,19.2,29.78,WSW,248,2.0,4.0,31,0.00,,,0.28,Wunderground v.1.15,2013-04-14 20:22:00,
2013-04-14 14:26:00,49.1,19.7,29.78,WNW,302,2.0,4.0,31,0.00,,,0.28,Wunderground v.1.15,2013-04-14 20:26:00,
2013-04-14 14:28:00,49.2,19.8,29.78,NNW,336,1.0,5.0,31,0.00,,,0.28,Wunderground v.1.15,2013-04-14 20:28:00,
2013-04-14 14:30:00,49.1,19.0,29.78,NW,326,2.0,3.0,30,0.00,,,0.28,Wunderground v.1.15,2013-04-14 20:30:00,
2013-04-14 14:32:00,48.9,18.8,29.78,NW,326,2.0,3.0,30,0.00,,,0.28,Wunderground v.1.15,2013-04-14 20:32:00,
2013-04-14 14:38:00,48.9,19.5,29.78,NW,306,4.0,10.0,31,0.00,,,0.28,Wunderground v.1.15,2013-04-14 20:38:00,
2013-04-14 14:40:00,48.9,21.7,29.78,NNE,27,4.0,4.0,34,0.00,,,0.28,Wunderground v.1.15,2013-04-14 20:40:00,
2013-04-14 14:44:00,49.1,20.5,29.78,NNW,343,4.0,6.0,32,0.00,,,0.28,Wunderground v.1.15,2013-04-14 20:44:00,
2013-04-14 14:48:00,48.9,18.8,29.77,NE,47,4.0,6.0,30,0.00,,,0.28,Wunderground v.1.15,2013-04-14 20:48:00,
2013-04-14 14:50:00,48.6,19.3,29.77,NNE,23,4.0,6.0,31,0.00,,,0.28,Wunderground v.1.15,2013-04-14 20:50:00,
2013-04-14 14:52:00,48.3,19.8,29.77,NNW,336,5.0,9.0,32,0.00,,,0.28,Wunderground v.1.15,2013-04-14 20:52:00,
2013-04-14 14:54:00,48.5,19.9,29.77,NE,46,5.0,9.0,32,0.00,,,0.28,Wunderground v.1.15,2013-04-14 20:54:00,
2013-04-14 14:58:00,48.9,21.0,29.77,NE,43,4.0,9.0,33,0.00,,,0.28,Wunderground v.1.15,2013-04-14 20:58:00,
2013-04-14 15:00:00,49.5,18.5,29.77,SSE,147,3.0,3.0,29,0.00,,,0.28,Wunderground v.1.15,2013-04-14 21:00:00,
2013-04-14 15:04:00,49.8,17.1,29.77,NNE,27,2.0,6.0,27,0.00,,,0.28,Wunderground v.1.15,2013-04-14 21:04:00,
2013-04-14 15:06:00,49.6,16.9,29.77,NNE,17,2.0,6.0,27,0.00,,,0.28,Wunderground v.1.15,2013-04-14 21:06:00,
2013-04-14 15:08:00,49.6,19.4,29.77,NNW,342,2.0,6.0,30,0.00,,,0.28,Wunderground v.1.15,2013-04-14 21:08:00,
2013-04-14 15:12:00,50.1,19.0,29.77,WNW,302,3.0,3.0,29,0.00,,,0.28,Wunderground v.1.15,2013-04-14 21:12:00,
2013-04-14 15:16:00,50.4,18.5,29.76,NE,37,3.0,3.0,28,0.00,,,0.28,Wunderground v.1.15,2013-04-14 21:16:00,
2013-04-14 15:18:00,50.2,19.9,29.76,NNE,22,3.0,5.0,30,0.00,,,0.28,Wunderground v.1.15,2013-04-14 21:18:00,
2013-04-14 15:22:00,50.7,19.6,29.76,NNW,338,4.0,4.0,29,0.00,,,0.28,Wunderground v.1.15,2013-04-14 21:22:00,
2013-04-14 15:24:00,50.8,18.8,29.76,NNW,345,4.0,4.0,28,0.00,,,0.28,Wunderground v.1.15,2013-04-14 21:24:00,
2013-04-14 15:28:00,50.2,18.3,29.76,NE,37,4.0,5.0,28,0.00,,,0.28,Wunderground v.1.15,2013-04-14 21:28:00,
2013-04-14 15:30:00,50.2,20.7,29.76,North,355,3.0,6.0,31,0.00,,,0.28,Wunderground v.1.15,2013-04-14 21:30:00,
2013-04-14 15:34:00,50.4,17.6,29.75,NW,306,4.0,6.0,27,0.00,,,0.28,Wunderground v.1.15,2013-04-14 21:34:00,
2013-04-14 15:36:00,50.5,18.6,29.75,NW,308,3.0,6.0,28,0.00,,,0.28,Wunderground v.1.15,2013-04-14 21:36:00,
2013-04-14 15:38:00,50.5,17.7,29.75,North,11,3.0,6.0,27,0.00,,,0.28,Wunderground v.1.15,2013-04-14 21:38:00,
2013-04-14 15:40:00,50.5,18.6,29.75,NNW,332,3.0,3.0,28,0.00,,,0.28,Wunderground v.1.15,2013-04-14 21:40:00,
2013-04-14 15:42:00,50.4,18.5,29.75,NNE,32,2.0,5.0,28,0.00,,,0.28,Wunderground v.1.15,2013-04-14 21:42:00,
2013-04-14 15:46:00,50.7,21.1,29.75,North,355,2.0,5.0,31,0.00,,,0.28,Wunderground v.1.15,2013-04-14 21:46:00,
2013-04-14 15:48:00,51.0,18.1,29.75,North,5,2.0,7.0,27,0.00,,,0.28,Wunderground v.1.15,2013-04-14 21:48:00,
2013-04-14 15:52:00,51.3,18.4,29.75,NNE,29,3.0,4.0,27,0.00,,,0.28,Wunderground v.1.15,2013-04-14 21:52:00,
2013-04-14 15:58:00,50.8,18.0,29.75,ENE,62,4.0,4.0,27,0.00,,,0.28,Wunderground v.1.15,2013-04-14 21:58:00,
2013-04-14 16:00:00,50.7,17.9,29.75,North,5,4.0,4.0,27,0.00,,,0.28,Wunderground v.1.15,2013-04-14 22:00:00,
2013-04-14 16:04:00,50.4,17.6,29.75,North,5,4.0,9.0,27,0.00,,,0.28,Wunderground v.1.15,2013-04-14 22:04:00,
2013-04-14 16:06:00,50.5,16.8,29.75,North,32767,4.0,9.0,26,0.00,,,0.28,Wunderground v.1.15,2013-04-14 22:06:00,
2013-04-14 16:08:00,50.5,17.7,29.75,NNW,338,4.0,9.0,27,0.00,,,0.28,Wunderground v.1.15,2013-04-14 22:08:00,
2013-04-14 16:10:00,50.7,17.9,29.75,NNE,24,4.0,4.0,27,0.00,,,0.28,Wunderground v.1.15,2013-04-14 22:10:00,
2013-04-14 16:16:00,50.7,17.9,29.74,NE,38,4.0,5.0,27,0.00,,,0.28,Wunderground v.1.15,2013-04-14 22:16:00,
2013-04-14 16:18:00,50.7,17.9,29.74,North,9,5.0,5.0,27,0.00,,,0.28,Wunderground v.1.15,2013-04-14 22:18:00,
2013-04-14 16:20:00,50.7,16.1,29.74,NNE,32,5.0,7.0,25,0.00,,,0.28,Wunderground v.1.15,2013-04-14 22:20:00,
2013-04-14 16:22:00,50.8,16.2,29.74,NNE,27,6.0,7.0,25,0.00,,,0.28,Wunderground v.1.15,2013-04-14 22:22:00,
2013-04-14 16:24:00,51.0,16.4,29.74,NNW,341,6.0,7.0,25,0.00,,,0.28,Wunderground v.1.15,2013-04-14 22:24:00,
2013-04-14 16:28:00,51.3,16.6,29.74,NNW,342,4.0,7.0,25,0.00,,,0.28,Wunderground v.1.15,2013-04-14 22:28:00,
2013-04-14 16:30:00,51.7,17.0,29.74,North,32767,3.0,3.0,25,0.00,,,0.28,Wunderground v.1.15,2013-04-14 22:30:00,
2013-04-14 16:34:00,51.7,16.0,29.73,North,32767,2.0,5.0,24,0.00,,,0.28,Wunderground v.1.15,2013-04-14 22:34:00,
2013-04-14 16:38:00,51.6,15.9,29.73,NNW,338,3.0,5.0,24,0.00,,,0.28,Wunderground v.1.15,2013-04-14 22:38:00,
2013-04-14 16:40:00,51.6,16.9,29.73,NW,325,2.0,4.0,25,0.00,,,0.28,Wunderground v.1.15,2013-04-14 22:40:00,
2013-04-14 16:44:00,51.6,15.9,29.73,North,32767,2.0,4.0,24,0.00,,,0.28,Wunderground v.1.15,2013-04-14 22:44:00,
2013-04-14 16:48:00,51.7,15.0,29.74,North,5,2.0,4.0,23,0.00,,,0.28,Wunderground v.1.15,2013-04-14 22:48:00,
2013-04-14 16:50:00,51.7,16.0,29.74,NNE,23,3.0,7.0,24,0.00,,,0.28,Wunderground v.1.15,2013-04-14 22:50:00,
2013-04-14 16:52:00,51.9,17.1,29.74,NNW,339,3.0,7.0,25,0.00,,,0.28,Wunderground v.1.15,2013-04-14 22:52:00,
2013-04-14 16:58:00,51.7,14.0,29.74,NNE,27,3.0,7.0,22,0.00,,,0.28,Wunderground v.1.15,2013-04-14 22:58:00,
2013-04-14 17:01:00,51.7,15.0,29.73,NE,38,2.0,2.0,23,0.00,,,0.28,Wunderground v.1.15,2013-04-14 23:01:00,
2013-04-14 17:02:00,51.7,16.0,29.73,NE,52,2.0,3.0,24,0.00,,,0.28,Wunderground v.1.15,2013-04-14 23:02:00,
2013-04-14 17:04:00,51.7,16.0,29.73,NNE,18,1.0,3.0,24,0.00,,,0.28,Wunderground v.1.15,2013-04-14 23:04:00,
2013-04-14 17:10:00,52.5,14.7,29.73,NNW,330,2.0,3.0,22,0.00,,,0.28,Wunderground v.1.15,2013-04-14 23:10:00,
2013-04-14 17:12:00,52.6,15.8,29.73,SSW,192,2.0,3.0,23,0.00,,,0.28,Wunderground v.1.15,2013-04-14 23:12:00,
2013-04-14 17:14:00,52.6,15.8,29.73,South,173,2.0,3.0,23,0.00,,,0.28,Wunderground v.1.15,2013-04-14 23:14:00,
2013-04-14 17:16:00,52.6,14.8,29.71,North,11,1.0,4.0,22,0.00,,,0.28,Wunderground v.1.15,2013-04-14 23:16:00,
2013-04-14 17:20:00,52.6,14.8,29.71,NNW,329,2.0,3.0,22,0.00,,,0.28,Wunderground v.1.15,2013-04-14 23:20:00,
2013-04-14 17:22:00,52.6,14.8,29.71,North,355,2.0,3.0,22,0.00,,,0.28,Wunderground v.1.15,2013-04-14 23:22:00,
2013-04-14 17:24:00,52.3,13.5,29.71,NNE,22,3.0,3.0,21,0.00,,,0.28,Wunderground v.1.15,2013-04-14 23:24:00,
2013-04-14 17:28:00,52.2,15.5,29.71,NNE,28,3.0,4.0,23,0.00,,,0.28,Wunderground v.1.15,2013-04-14 23:28:00,
2013-04-14 17:30:00,52.0,15.3,29.71,NNE,17,3.0,3.0,23,0.00,,,0.28,Wunderground v.1.15,2013-04-14 23:30:00,
2013-04-14 17:32:00,52.0,15.3,29.72,NNE,29,2.0,6.0,23,0.00,,,0.28,Wunderground v.1.15,2013-04-14 23:32:00,
2013-04-14 17:36:00,52.3,14.5,29.72,North,5,2.0,8.0,22,0.00,,,0.28,Wunderground v.1.15,2013-04-14 23:36:00,
2013-04-14 17:38:00,52.3,14.5,29.72,NNW,343,3.0,8.0,22,0.00,,,0.28,Wunderground v.1.15,2013-04-14 23:38:00,
2013-04-14 17:40:00,52.3,13.5,29.72,NW,315,3.0,4.0,21,0.00,,,0.28,Wunderground v.1.15,2013-04-14 23:40:00,
2013-04-14 17:44:00,52.3,14.5,29.72,NE,40,3.0,6.0,22,0.00,,,0.28,Wunderground v.1.15,2013-04-14 23:44:00,
2013-04-14 17:46:00,52.3,14.5,29.71,North,9,3.0,6.0,22,0.00,,,0.28,Wunderground v.1.15,2013-04-14 23:46:00,
2013-04-14 17:50:00,52.6,14.8,29.71,North,355,2.0,2.0,22,0.00,,,0.28,Wunderground v.1.15,2013-04-14 23:50:00,
2013-04-14 17:52:00,52.6,13.7,29.71,NNE,26,2.0,5.0,21,0.00,,,0.28,Wunderground v.1.15,2013-04-14 23:52:00,
2013-04-14 17:54:00,52.5,13.6,29.71,NNW,333,2.0,5.0,21,0.00,,,0.28,Wunderground v.1.15,2013-04-14 23:54:00,
2013-04-14 18:00:00,52.3,14.5,29.71,NNW,327,2.0,2.0,22,0.00,,,0.28,Wunderground v.1.15,2013-04-15 00:00:00,
2013-04-14 18:02:00,52.5,14.7,29.70,NE,34,2.0,2.0,22,0.00,,,0.28,Wunderground v.1.15,2013-04-15 00:02:00,
2013-04-14 18:04:00,52.5,14.7,29.70,North,9,2.0,3.0,22,0.00,,,0.28,Wunderground v.1.15,2013-04-15 00:04:00,
2013-04-14 18:06:00,52.5,13.6,29.70,North,350,2.0,3.0,21,0.00,,,0.28,Wunderground v.1.15,2013-04-15 00:06:00,
2013-04-14 18:10:00,52.6,13.7,29.70,NNE,15,1.0,2.0,21,0.00,,,0.28,Wunderground v.1.15,2013-04-15 00:10:00,
2013-04-14 18:12:00,52.6,13.7,29.70,North,355,1.0,3.0,21,0.00,,,0.28,Wunderground v.1.15,2013-04-15 00:12:00,
2013-04-14 18:14:00,52.6,12.6,29.70,NNW,344,2.0,3.0,20,0.00,,,0.28,Wunderground v.1.15,2013-04-15 00:14:00,
2013-04-14 18:18:00,52.5,12.5,29.70,WNW,290,1.0,3.0,20,0.00,,,0.28,Wunderground v.1.15,2013-04-15 00:18:00,
2013-04-14 18:20:00,52.3,12.4,29.70,NNE,24,2.0,5.0,20,0.00,,,0.28,Wunderground v.1.15,2013-04-15 00:20:00,
2013-04-14 18:22:00,52.2,12.3,29.70,NNW,341,2.0,5.0,20,0.00,,,0.28,Wunderground v.1.15,2013-04-15 00:22:00,
2013-04-14 18:28:00,52.0,12.1,29.70,NNE,26,2.0,5.0,20,0.00,,,0.28,Wunderground v.1.15,2013-04-15 00:28:00,
2013-04-14 18:30:00,52.0,13.2,29.69,NE,36,2.0,4.0,21,0.00,,,0.28,Wunderground v.1.15,2013-04-15 00:30:00,
2013-04-14 18:32:00,52.2,12.3,29.69,North,355,2.0,4.0,20,0.00,,,0.28,Wunderground v.1.15,2013-04-15 00:32:00,
2013-04-14 18:34:00,52.0,12.1,29.69,NNE,30,2.0,5.0,20,0.00,,,0.28,Wunderground v.1.15,2013-04-15 00:34:00,
2013-04-14 18:36:00,52.0,12.1,29.69,NNE,13,3.0,5.0,20,0.00,,,0.28,Wunderground v.1.15,2013-04-15 00:36:00,
2013-04-14 18:38:00,52.0,12.1,29.69,North,5,3.0,5.0,20,0.00,,,0.28,Wunderground v.1.15,2013-04-15 00:38:00,
2013-04-14 18:40:00,52.0,12.1,29.69,North,5,2.0,2.0,20,0.00,,,0.28,Wunderground v.1.15,2013-04-15 00:40:00,
2013-04-14 18:42:00,52.0,12.1,29.69,North,5,2.0,5.0,20,0.00,,,0.28,Wunderground v.1.15,2013-04-15 00:42:00,
2013-04-14 18:46:00,52.0,13.2,29.69,North,5,1.0,5.0,21,0.00,,,0.28,Wunderground v.1.15,2013-04-15 00:46:00,
2013-04-14 18:48:00,52.2,12.3,29.69,WNW,303,1.0,5.0,20,0.00,,,0.28,Wunderground v.1.15,2013-04-15 00:48:00,
2013-04-14 18:54:00,52.2,11.1,29.69,NW,310,2.0,2.0,19,0.00,,,0.28,Wunderground v.1.15,2013-04-15 00:54:00,
2013-04-14 18:56:00,52.2,11.1,29.69,NW,310,2.0,2.0,19,0.00,,,0.28,Wunderground v.1.15,2013-04-15 00:56:00,
2013-04-14 19:00:00,52.0,12.1,29.69,NNW,335,2.0,2.0,20,0.00,,,0.28,Wunderground v.1.15,2013-04-15 01:00:00,
2013-04-14 19:02:00,52.0,12.1,29.69,North,5,2.0,7.0,20,0.00,,,0.28,Wunderground v.1.15,2013-04-15 01:02:00,
2013-04-14 19:04:00,51.9,10.9,29.69,NNE,30,2.0,7.0,19,0.00,,,0.28,Wunderground v.1.15,2013-04-15 01:04:00,
2013-04-14 19:06:00,51.9,10.9,29.69,NNE,19,2.0,7.0,19,0.00,,,0.28,Wunderground v.1.15,2013-04-15 01:06:00,
2013-04-14 19:10:00,51.7,9.5,29.69,NNE,18,2.0,2.0,18,0.00,,,0.28,Wunderground v.1.15,2013-04-15 01:10:00,
2013-04-14 19:12:00,51.6,10.6,29.69,NNE,18,1.0,2.0,19,0.00,,,0.28,Wunderground v.1.15,2013-04-15 01:12:00,
2013-04-14 19:18:00,51.4,11.6,29.69,NNE,18,0.0,2.0,20,0.00,,,0.28,Wunderground v.1.15,2013-04-15 01:18:00,
2013-04-14 19:20:00,51.4,11.6,29.69,NNE,18,0.0,1.0,20,0.00,,,0.28,Wunderground v.1.15,2013-04-15 01:20:00,
2013-04-14 19:26:00,51.1,10.2,29.69,NNE,18,0.0,1.0,19,0.00,,,0.28,Wunderground v.1.15,2013-04-15 01:26:00,
2013-04-14 19:32:00,51.0,10.1,29.70,NNE,18,0.0,0.0,19,0.00,,,0.28,Wunderground v.1.15,2013-04-15 01:32:00,
2013-04-14 19:34:00,50.8,9.9,29.70,NNE,18,0.0,0.0,19,0.00,,,0.28,Wunderground v.1.15,2013-04-15 01:34:00,
2013-04-14 19:40:00,50.7,9.9,29.70,NNE,19,0.0,0.0,19,0.00,,,0.28,Wunderground v.1.15,2013-04-15 01:40:00,
2013-04-14 19:42:00,50.5,9.7,29.70,NNE,18,0.0,0.0,19,0.00,,,0.28,Wunderground v.1.15,2013-04-15 01:42:00,
2013-04-14 19:44:00,50.4,10.8,29.70,NNE,18,0.0,0.0,20,0.00,,,0.28,Wunderground v.1.15,2013-04-15 01:44:00,
2013-04-14 19:48:00,50.1,10.5,29.70,NNE,18,0.0,0.0,20,0.00,,,0.28,Wunderground v.1.15,2013-04-15 01:48:00,
2013-04-14 19:50:00,49.9,11.4,29.70,NNE,18,0.0,0.0,21,0.00,,,0.28,Wunderground v.1.15,2013-04-15 01:50:00,
2013-04-14 19:52:00,49.8,11.4,29.70,NNE,18,0.0,0.0,21,0.00,,,0.28,Wunderground v.1.15,2013-04-15 01:52:00,
2013-04-14 19:54:00,49.6,11.2,29.70,NNE,18,0.0,0.0,21,0.00,,,0.28,Wunderground v.1.15,2013-04-15 01:54:00,
2013-04-14 19:58:00,49.2,10.9,29.70,NNE,18,0.0,0.0,21,0.00,,,0.28,Wunderground v.1.15,2013-04-15 01:58:00,
2013-04-14 20:01:00,48.9,11.7,29.71,NNE,18,0.0,0.0,22,0.00,,,0.28,Wunderground v.1.15,2013-04-15 02:01:00,
2013-04-14 20:02:00,48.9,11.7,29.71,NNE,18,0.0,0.0,22,0.00,,,0.28,Wunderground v.1.15,2013-04-15 02:02:00,
2013-04-14 20:06:00,48.8,12.6,29.71,NNE,18,0.0,0.0,23,0.00,,,0.28,Wunderground v.1.15,2013-04-15 02:06:00,
2013-04-14 20:08:00,48.6,13.4,29.71,NNE,18,0.0,0.0,24,0.00,,,0.28,Wunderground v.1.15,2013-04-15 02:08:00,
2013-04-14 20:10:00,48.6,12.4,29.71,NNE,18,0.0,0.0,23,0.00,,,0.28,Wunderground v.1.15,2013-04-15 02:10:00,
2013-04-14 20:12:00,48.5,13.3,29.71,NNE,18,0.0,0.0,24,0.00,,,0.28,Wunderground v.1.15,2013-04-15 02:12:00,
2013-04-14 20:14:00,48.3,13.1,29.71,NNE,18,0.0,0.0,24,0.00,,,0.28,Wunderground v.1.15,2013-04-15 02:14:00,
2013-04-14 20:16:00,48.2,13.0,29.71,NNE,18,0.0,0.0,24,0.00,,,0.28,Wunderground v.1.15,2013-04-15 02:16:00,
2013-04-14 20:18:00,48.0,13.8,29.71,NNE,18,0.0,0.0,25,0.00,,,0.28,Wunderground v.1.15,2013-04-15 02:18:00,
2013-04-14 20:22:00,48.0,14.7,29.71,NNE,21,0.0,1.0,26,0.00,,,0.28,Wunderground v.1.15,2013-04-15 02:22:00,
2013-04-14 20:28:00,47.6,16.1,29.71,ESE,113,1.0,1.0,28,0.00,,,0.28,Wunderground v.1.15,2013-04-15 02:28:00,
2013-04-14 20:30:00,47.4,15.0,29.71,ESE,113,0.0,0.0,27,0.00,,,0.28,Wunderground v.1.15,2013-04-15 02:30:00,
2013-04-14 20:34:00,47.0,20.0,29.72,ESE,113,0.0,0.0,34,0.00,,,0.28,Wunderground v.1.15,2013-04-15 02:34:00,
2013-04-14 20:36:00,46.8,19.9,29.72,ESE,113,0.0,0.0,34,0.00,,,0.28,Wunderground v.1.15,2013-04-15 02:36:00,
2013-04-14 20:38:00,46.5,20.3,29.72,ESE,113,0.0,0.0,35,0.00,,,0.28,Wunderground v.1.15,2013-04-15 02:38:00,
2013-04-14 20:42:00,46.2,20.0,29.72,ESE,113,0.0,0.0,35,0.00,,,0.28,Wunderground v.1.15,2013-04-15 02:42:00,
2013-04-14 20:44:00,46.1,20.6,29.72,ESE,113,0.0,2.0,36,0.00,,,0.28,Wunderground v.1.15,2013-04-15 02:44:00,
2013-04-14 20:50:00,45.7,19.6,29.72,ESE,113,0.0,1.0,35,0.00,,,0.28,Wunderground v.1.15,2013-04-15 02:50:00,
2013-04-14 20:54:00,45.8,19.0,29.72,ESE,113,0.0,1.0,34,0.00,,,0.28,Wunderground v.1.15,2013-04-15 02:54:00,
2013-04-14 20:56:00,45.8,19.0,29.72,ESE,113,0.0,1.0,34,0.00,,,0.28,Wunderground v.1.15,2013-04-15 02:56:00,
2013-04-14 20:58:00,45.7,19.6,29.72,ESE,113,0.0,1.0,35,0.00,,,0.28,Wunderground v.1.15,2013-04-15 02:58:00,
2013-04-14 21:02:00,45.5,19.4,29.72,ESE,113,0.0,0.0,35,0.00,,,0.28,Wunderground v.1.15,2013-04-15 03:02:00,
2013-04-14 21:04:00,45.4,19.3,29.72,ESE,113,0.0,0.0,35,0.00,,,0.28,Wunderground v.1.15,2013-04-15 03:04:00,
2013-04-14 21:08:00,45.1,21.6,29.72,ESE,113,0.0,1.0,39,0.00,,,0.28,Wunderground v.1.15,2013-04-15 03:08:00,
2013-04-14 21:14:00,44.5,24.5,29.72,ESE,113,0.0,3.0,45,0.00,,,0.28,Wunderground v.1.15,2013-04-15 03:14:00,
2013-04-14 21:18:00,44.1,25.1,29.72,ESE,113,0.0,3.0,47,0.00,,,0.28,Wunderground v.1.15,2013-04-15 03:18:00,
2013-04-14 21:22:00,43.8,25.9,29.72,ESE,113,0.0,0.0,49,0.00,,,0.28,Wunderground v.1.15,2013-04-15 03:22:00,
2013-04-14 21:26:00,43.5,26.1,29.72,ESE,113,0.0,0.0,50,0.00,,,0.28,Wunderground v.1.15,2013-04-15 03:26:00,
2013-04-14 21:28:00,43.3,26.4,29.72,ESE,113,0.0,0.0,51,0.00,,,0.28,Wunderground v.1.15,2013-04-15 03:28:00,
2013-04-14 21:30:00,43.2,26.3,29.72,ESE,113,0.0,1.0,51,0.00,,,0.28,Wunderground v.1.15,2013-04-15 03:30:00,
2013-04-14 21:34:00,43.1,26.7,29.71,ESE,113,0.0,1.0,52,0.00,,,0.28,Wunderground v.1.15,2013-04-15 03:34:00,
2013-04-14 21:36:00,42.9,26.5,29.71,ESE,113,0.0,1.0,52,0.00,,,0.28,Wunderground v.1.15,2013-04-15 03:36:00,
2013-04-14 21:38:00,42.9,26.9,29.71,ESE,113,0.0,1.0,53,0.00,,,0.28,Wunderground v.1.15,2013-04-15 03:38:00,
2013-04-14 21:40:00,42.8,26.8,29.71,ESE,113,0.0,0.0,53,0.00,,,0.28,Wunderground v.1.15,2013-04-15 03:40:00,
2013-04-14 21:42:00,42.8,26.8,29.71,ESE,113,0.0,0.0,53,0.00,,,0.28,Wunderground v.1.15,2013-04-15 03:42:00,
2013-04-14 21:48:00,42.6,27.1,29.71,ESE,113,0.0,0.0,54,0.00,,,0.28,Wunderground v.1.15,2013-04-15 03:48:00,
2013-04-14 21:50:00,42.5,27.0,29.71,ESE,113,0.0,0.0,54,0.00,,,0.28,Wunderground v.1.15,2013-04-15 03:50:00,
2013-04-14 21:52:00,42.5,27.0,29.71,ESE,113,0.0,0.0,54,0.00,,,0.28,Wunderground v.1.15,2013-04-15 03:52:00,
2013-04-14 21:56:00,42.3,27.3,29.71,ESE,113,0.0,0.0,55,0.00,,,0.28,Wunderground v.1.15,2013-04-15 03:56:00,
2013-04-14 22:00:00,42.1,27.5,29.71,ESE,113,0.0,0.0,56,0.00,,,0.28,Wunderground v.1.15,2013-04-15 04:00:00,
2013-04-14 22:02:00,42.1,27.9,29.72,ESE,113,0.0,0.0,57,0.00,,,0.28,Wunderground v.1.15,2013-04-15 04:02:00,
2013-04-14 22:08:00,41.8,27.2,29.72,ESE,113,0.0,0.0,56,0.00,,,0.28,Wunderground v.1.15,2013-04-15 04:08:00,
2013-04-14 22:10:00,41.8,26.8,29.72,ESE,113,0.0,0.0,55,0.00,,,0.28,Wunderground v.1.15,2013-04-15 04:10:00,
2013-04-14 22:12:00,41.8,26.8,29.72,ESE,113,0.0,0.0,55,0.00,,,0.28,Wunderground v.1.15,2013-04-15 04:12:00,
2013-04-14 22:14:00,41.8,26.8,29.72,ESE,113,0.0,0.0,55,0.00,,,0.28,Wunderground v.1.15,2013-04-15 04:14:00,
2013-04-14 22:20:00,41.9,26.9,29.71,ESE,113,0.0,0.0,55,0.00,,,0.28,Wunderground v.1.15,2013-04-15 04:20:00,
2013-04-14 22:22:00,42.1,27.1,29.71,ESE,113,0.0,0.0,55,0.00,,,0.28,Wunderground v.1.15,2013-04-15 04:22:00,
2013-04-14 22:26:00,42.2,27.2,29.71,ESE,113,0.0,0.0,55,0.00,,,0.28,Wunderground v.1.15,2013-04-15 04:26:00,
2013-04-14 22:28:00,42.2,27.2,29.71,ESE,113,0.0,0.0,55,0.00,,,0.28,Wunderground v.1.15,2013-04-15 04:28:00,
2013-04-14 22:30:00,42.3,27.3,29.71,ESE,113,0.0,0.0,55,0.00,,,0.28,Wunderground v.1.15,2013-04-15 04:30:00,
2013-04-14 22:34:00,42.3,27.7,29.70,ESE,113,0.0,1.0,56,0.00,,,0.28,Wunderground v.1.15,2013-04-15 04:34:00,
2013-04-14 22:36:00,42.5,27.9,29.70,ESE,113,0.0,2.0,56,0.00,,,0.28,Wunderground v.1.15,2013-04-15 04:36:00,
2013-04-14 22:40:00,42.5,27.5,29.70,ESE,113,0.0,0.0,55,0.00,,,0.28,Wunderground v.1.15,2013-04-15 04:40:00,
2013-04-14 22:42:00,42.5,27.5,29.70,ESE,113,0.0,0.0,55,0.00,,,0.28,Wunderground v.1.15,2013-04-15 04:42:00,
2013-04-14 22:44:00,42.5,27.9,29.70,ESE,113,0.0,0.0,56,0.00,,,0.28,Wunderground v.1.15,2013-04-15 04:44:00,
2013-04-14 22:46:00,42.5,27.9,29.68,ESE,113,0.0,0.0,56,0.00,,,0.28,Wunderground v.1.15,2013-04-15 04:46:00,
2013-04-14 22:48:00,42.3,27.7,29.68,ESE,113,0.0,0.0,56,0.00,,,0.28,Wunderground v.1.15,2013-04-15 04:48:00,
2013-04-14 22:52:00,42.3,27.7,29.68,ESE,113,0.0,2.0,56,0.00,,,0.28,Wunderground v.1.15,2013-04-15 04:52:00,
2013-04-14 22:54:00,42.5,28.8,29.68,ESE,113,1.0,2.0,58,0.00,,,0.28,Wunderground v.1.15,2013-04-15 04:54:00,
2013-04-14 22:58:00,42.5,28.8,29.68,ESE,113,1.0,2.0,58,0.00,,,0.28,Wunderground v.1.15,2013-04-15 04:58:00,
2013-04-14 23:00:00,42.5,28.8,29.68,ESE,113,1.0,1.0,58,0.00,,,0.28,Wunderground v.1.15,2013-04-15 05:00:00,
2013-04-14 23:06:00,42.5,28.3,29.69,ESE,114,1.0,1.0,57,0.00,,,0.28,Wunderground v.1.15,2013-04-15 05:06:00,
2013-04-14 23:08:00,42.6,28.4,29.69,ESE,115,0.0,3.0,57,0.00,,,0.28,Wunderground v.1.15,2013-04-15 05:08:00,
2013-04-14 23:12:00,42.6,28.8,29.69,ESE,115,1.0,1.0,58,0.00,,,0.28,Wunderground v.1.15,2013-04-15 05:12:00,
2013-04-14 23:14:00,42.6,28.4,29.69,ESE,115,1.0,2.0,57,0.00,,,0.28,Wunderground v.1.15,2013-04-15 05:14:00,
2013-04-14 23:18:00,42.6,28.8,29.66,ESE,115,1.0,2.0,58,0.00,,,0.28,Wunderground v.1.15,2013-04-15 05:18:00,
2013-04-14 23:22:00,42.6,28.8,29.66,SSE,158,1.0,3.0,58,0.00,,,0.28,Wunderground v.1.15,2013-04-15 05:22:00,
2013-04-14 23:24:00,42.5,28.8,29.66,SSE,158,1.0,3.0,58,0.00,,,0.28,Wunderground v.1.15,2013-04-15 05:24:00,
2013-04-14 23:28:00,42.5,28.8,29.66,SE,133,1.0,3.0,58,0.00,,,0.28,Wunderground v.1.15,2013-04-15 05:28:00,
2013-04-14 23:30:00,42.5,28.3,29.66,SE,133,1.0,1.0,57,0.00,,,0.28,Wunderground v.1.15,2013-04-15 05:30:00,
2013-04-14 23:34:00,42.5,27.9,29.66,SE,133,0.0,1.0,56,0.00,,,0.28,Wunderground v.1.15,2013-04-15 05:34:00,
2013-04-14 23:38:00,42.6,28.4,29.66,SE,133,0.0,3.0,57,0.00,,,0.28,Wunderground v.1.15,2013-04-15 05:38:00,
2013-04-14 23:40:00,42.6,28.4,29.66,SE,133,0.0,3.0,57,0.00,,,0.28,Wunderground v.1.15,2013-04-15 05:40:00,
2013-04-14 23:42:00,42.6,28.0,29.66,SE,125,1.0,3.0,56,0.00,,,0.28,Wunderground v.1.15,2013-04-15 05:42:00,
2013-04-14 23:46:00,42.8,27.7,29.65,SE,128,2.0,4.0,55,0.00,,,0.28,Wunderground v.1.15,2013-04-15 05:46:00,
2013-04-14 23:50:00,42.8,28.6,29.65,SSE,164,2.0,2.0,57,0.00,,,0.28,Wunderground v.1.15,2013-04-15 05:50:00,
2013-04-14 23:52:00,42.6,28.4,29.65,SSE,164,2.0,2.0,57,0.00,,,0.28,Wunderground v.1.15,2013-04-15 05:52:00,
2013-04-14 23:58:00,42.6,28.8,29.65,SSE,164,0.0,2.0,58,0.00,,,0.28,Wunderground v.1.15,2013-04-15 05:58:00,